createdAt,value
2019-06-10T00:01:43.820Z,16.20
2019-06-10T00:04:13.629Z,16.10
2019-06-10T00:06:43.830Z,16.00
2019-06-10T00:09:13.634Z,16.00
2019-06-10T00:11:43.474Z,15.90
2019-06-10T00:14:13.520Z,15.90
2019-06-10T00:16:43.612Z,15.80
2019-06-10T00:19:13.445Z,15.70
2019-06-10T00:21:43.318Z,15.60
2019-06-10T00:24:13.411Z,15.50
2019-06-10T00:26:43.543Z,15.40
2019-06-10T00:29:13.380Z,15.40
2019-06-10T00:31:43.449Z,15.30
2019-06-10T00:34:13.255Z,15.30
2019-06-10T00:36:43.100Z,15.30
2019-06-10T00:39:13.673Z,15.30
2019-06-10T00:41:43.716Z,15.30
2019-06-10T00:44:13.799Z,15.30
2019-06-10T00:46:43.911Z,15.30
2019-06-10T00:49:14.731Z,15.20
2019-06-10T00:51:44.764Z,15.20
2019-06-10T00:54:15.749Z,15.10
2019-06-10T00:56:46.106Z,15.00
2019-06-10T00:59:16.180Z,14.90
2019-06-10T01:01:46.316Z,14.70
2019-06-10T01:04:16.595Z,14.60
2019-06-10T01:06:47.745Z,14.50
2019-06-10T01:09:17.888Z,14.40
2019-06-10T01:11:48.078Z,14.40
2019-06-10T01:14:21.364Z,14.40
2019-06-10T01:16:50.828Z,14.40
2019-06-10T01:19:21.934Z,14.40
2019-06-10T01:21:51.890Z,14.40
2019-06-10T01:24:22.341Z,14.40
2019-06-10T01:26:52.392Z,14.50
2019-06-10T01:29:22.464Z,14.60
2019-06-10T01:31:52.511Z,14.60
2019-06-10T01:34:22.628Z,14.60
2019-06-10T01:36:52.700Z,14.70
2019-06-10T01:39:22.749Z,14.70
2019-06-10T01:41:52.644Z,14.80
2019-06-10T01:44:22.700Z,14.80
2019-06-10T01:46:52.543Z,14.90
2019-06-10T01:49:22.348Z,14.90
2019-06-10T01:51:52.151Z,14.90
2019-06-10T01:54:22.008Z,14.90
2019-06-10T01:56:51.835Z,14.90
2019-06-10T01:59:22.289Z,15.00
2019-06-10T02:02:00.978Z,15.00
2019-06-10T02:04:32.017Z,15.00
2019-06-10T02:07:02.137Z,15.00
2019-06-10T02:09:32.143Z,15.00
2019-06-10T02:12:02.366Z,15.00
2019-06-10T02:14:32.373Z,14.90
2019-06-10T02:17:02.205Z,14.90
2019-06-10T02:19:32.090Z,14.80
2019-06-10T02:22:01.912Z,14.80
2019-06-10T02:24:31.995Z,14.70
2019-06-10T02:27:01.870Z,14.70
2019-06-10T02:29:31.926Z,14.60
2019-06-10T02:32:04.760Z,14.60
2019-06-10T02:34:39.076Z,14.60
2019-06-10T02:37:05.122Z,14.50
2019-06-10T02:39:38.716Z,14.50
2019-06-10T02:42:08.360Z,14.40
2019-06-10T02:44:38.189Z,14.50
2019-06-10T02:47:08.426Z,14.50
2019-06-10T02:49:52.770Z,14.50
2019-06-10T02:52:22.426Z,14.50
2019-06-10T02:54:53.658Z,14.50
2019-06-10T02:57:29.689Z,14.50
2019-06-10T02:59:54.517Z,14.40
2019-06-10T03:02:31.392Z,14.30
2019-06-10T03:04:56.181Z,14.30
2019-06-10T03:07:29.322Z,14.20
2019-06-10T03:09:57.812Z,14.20
2019-06-10T03:12:28.179Z,14.20
2019-06-10T03:14:58.154Z,14.20
2019-06-10T03:17:28.261Z,14.20
2019-06-10T03:19:58.216Z,14.10
2019-06-10T03:22:28.475Z,14.10
2019-06-10T03:24:58.640Z,14.00
2019-06-10T03:27:28.496Z,13.90
2019-06-10T03:29:58.294Z,13.90
2019-06-10T03:32:35.377Z,13.80
2019-06-10T03:34:59.621Z,13.70
2019-06-10T03:37:29.410Z,13.70
2019-06-10T03:39:59.249Z,13.80
2019-06-10T03:42:29.119Z,13.80
2019-06-10T03:44:59.006Z,13.80
2019-06-10T03:47:28.911Z,13.80
2019-06-10T03:49:58.976Z,13.90
2019-06-10T03:52:28.771Z,13.80
2019-06-10T03:54:58.571Z,13.80
2019-06-10T03:57:28.743Z,13.90
2019-06-10T03:59:58.587Z,13.90
2019-06-10T04:02:28.520Z,13.90
2019-06-10T04:04:58.650Z,13.90
2019-06-10T04:07:31.055Z,13.90
2019-06-10T04:10:02.308Z,13.80
2019-06-10T04:12:32.736Z,13.80
2019-06-10T04:15:03.214Z,13.80
2019-06-10T04:17:34.147Z,13.80
2019-06-10T04:20:11.439Z,13.80
2019-06-10T04:22:37.184Z,13.80
2019-06-10T04:25:08.208Z,13.90
2019-06-10T04:27:38.351Z,13.90
2019-06-10T04:30:08.790Z,14.00
2019-06-10T04:32:38.604Z,14.00
2019-06-10T04:35:08.563Z,14.00
2019-06-10T04:37:38.550Z,14.10
2019-06-10T04:40:08.750Z,14.10
2019-06-10T04:42:38.566Z,14.30
2019-06-10T04:45:08.835Z,14.30
2019-06-10T04:47:38.648Z,14.50
2019-06-10T04:50:20.794Z,14.50
2019-06-10T04:52:42.922Z,14.60
2019-06-10T04:55:12.797Z,14.70
2019-06-10T04:57:43.144Z,14.70
2019-06-10T05:00:14.711Z,14.70
2019-06-10T05:02:44.786Z,14.80
2019-06-10T05:05:14.981Z,14.80
2019-06-10T05:07:45.133Z,14.90
2019-06-10T05:10:14.996Z,14.90
2019-06-10T05:12:45.075Z,14.90
2019-06-10T05:15:15.044Z,15.00
2019-06-10T05:17:45.115Z,15.00
2019-06-10T05:20:15.357Z,15.10
2019-06-10T05:22:45.650Z,15.40
2019-06-10T05:25:15.515Z,15.50
2019-06-10T05:27:45.581Z,15.50
2019-06-10T05:30:15.443Z,15.60
2019-06-10T05:32:45.535Z,15.70
2019-06-10T05:35:15.386Z,15.90
2019-06-10T05:37:45.461Z,15.80
2019-06-10T05:40:15.408Z,15.90
2019-06-10T05:42:45.288Z,16.00
2019-06-10T05:45:15.357Z,16.20
2019-06-10T05:47:45.631Z,16.50
2019-06-10T05:50:15.582Z,16.70
2019-06-10T05:52:45.666Z,16.80
2019-06-10T05:55:15.724Z,16.90
2019-06-10T05:57:45.811Z,17.00
2019-06-10T06:00:16.662Z,17.10
2019-06-10T06:02:46.562Z,17.30
2019-06-10T06:05:16.780Z,17.50
2019-06-10T06:08:01.074Z,17.30
2019-06-10T06:10:18.244Z,17.30
2019-06-10T06:12:48.487Z,17.40
2019-06-10T06:15:18.609Z,17.70
2019-06-10T06:18:01.069Z,17.60
2019-06-10T06:20:20.464Z,17.80
2019-06-10T06:22:52.243Z,18.20
2019-06-10T06:25:24.122Z,18.20
2019-06-10T06:27:54.059Z,18.10
2019-06-10T06:30:24.221Z,17.90
2019-06-10T06:32:54.279Z,18.00
2019-06-10T06:35:24.357Z,17.80
2019-06-10T06:37:54.178Z,17.80
2019-06-10T06:40:24.008Z,17.70
2019-06-10T06:42:54.053Z,17.80
2019-06-10T06:45:23.871Z,17.80
2019-06-10T06:47:53.949Z,17.90
2019-06-10T06:50:25.626Z,17.90
2019-06-10T06:53:19.753Z,17.90
2019-06-10T06:55:28.605Z,17.90
2019-06-10T06:57:58.515Z,18.00
2019-06-10T07:00:49.188Z,18.10
2019-06-10T07:03:05.822Z,18.30
2019-06-10T07:05:37.551Z,18.50
2019-06-10T07:08:08.631Z,18.90
2019-06-10T07:10:40.797Z,18.50
2019-06-10T07:13:12.903Z,18.90
2019-06-10T07:15:47.598Z,18.90
2019-06-10T07:18:18.135Z,18.70
2019-06-10T07:20:47.975Z,19.10
2019-06-10T07:23:17.859Z,19.80
2019-06-10T07:25:47.841Z,20.00
2019-06-10T07:28:18.002Z,20.90
2019-06-10T07:30:52.876Z,21.80
2019-06-10T07:33:19.618Z,23.60
2019-06-10T07:35:49.450Z,24.10
2019-06-10T07:38:19.260Z,25.00
2019-06-10T07:40:49.389Z,25.00
2019-06-10T07:43:19.188Z,25.30
2019-06-10T07:45:49.002Z,25.20
2019-06-10T07:48:18.890Z,26.90
2019-06-10T07:50:48.964Z,27.10
2019-06-10T07:53:18.879Z,25.90
2019-06-10T07:55:49.005Z,25.80
2019-06-10T07:58:19.085Z,25.90
2019-06-10T08:00:49.058Z,25.70
2019-06-10T08:03:19.131Z,26.10
2019-06-10T08:05:49.027Z,26.30
2019-06-10T08:08:18.840Z,27.00
2019-06-10T08:10:48.655Z,26.30
2019-06-10T08:13:18.545Z,26.80
2019-06-10T08:15:48.515Z,25.10
2019-06-10T08:18:18.388Z,24.80
2019-06-10T08:20:48.261Z,24.70
2019-06-10T08:23:19.680Z,24.30
2019-06-10T08:25:54.652Z,23.70
2019-06-10T08:28:23.031Z,25.00
2019-06-10T08:30:53.512Z,25.10
2019-06-10T08:33:23.764Z,25.30
2019-06-10T08:35:59.315Z,25.80
2019-06-10T08:38:25.742Z,26.80
2019-06-10T08:40:55.705Z,26.80
2019-06-10T08:43:25.895Z,27.50
2019-06-10T08:45:55.770Z,26.70
2019-06-10T08:48:25.746Z,26.40
2019-06-10T08:50:55.577Z,25.00
2019-06-10T08:53:25.741Z,24.50
2019-06-10T08:55:55.614Z,24.60
2019-06-10T08:58:25.405Z,24.80
2019-06-10T09:00:55.624Z,23.80
2019-06-10T09:03:25.494Z,23.60
2019-06-10T09:05:58.333Z,24.50
2019-06-10T09:08:26.979Z,25.10
2019-06-10T09:10:56.840Z,25.20
2019-06-10T09:13:27.000Z,24.40
2019-06-10T09:16:11.698Z,24.30
2019-06-10T09:18:29.951Z,24.20
2019-06-10T09:21:02.166Z,24.20
2019-06-10T09:23:33.148Z,25.20
2019-06-10T09:26:03.736Z,25.40
2019-06-10T09:28:33.776Z,26.20
2019-06-10T09:31:05.303Z,27.10
2019-06-10T09:33:35.279Z,27.30
2019-06-10T09:36:05.660Z,28.10
2019-06-10T09:38:35.474Z,28.00
2019-06-10T09:41:06.316Z,27.10
2019-06-10T09:43:36.543Z,27.20
2019-06-10T09:46:06.536Z,26.10
2019-06-10T09:48:36.768Z,26.50
2019-06-10T09:51:06.613Z,27.20
2019-06-10T09:53:42.690Z,27.50
2019-06-10T09:56:08.267Z,27.40
2019-06-10T09:58:38.094Z,27.10
2019-06-10T10:01:07.977Z,27.80
2019-06-10T10:03:37.911Z,28.00
2019-06-10T10:06:15.297Z,28.00
2019-06-10T10:08:39.654Z,27.60
2019-06-10T10:11:12.340Z,27.10
2019-06-10T10:13:44.134Z,27.30
2019-06-10T10:16:13.112Z,28.30
2019-06-10T10:18:47.297Z,29.00
2019-06-10T10:21:15.616Z,29.00
2019-06-10T10:23:54.279Z,27.60
2019-06-10T10:26:18.194Z,26.90
2019-06-10T10:28:51.807Z,27.60
2019-06-10T10:31:23.048Z,26.70
2019-06-10T10:33:52.683Z,27.20
2019-06-10T10:36:22.732Z,27.40
2019-06-10T10:38:54.048Z,27.30
2019-06-10T10:41:24.242Z,26.70
2019-06-10T10:43:58.134Z,26.00
2019-06-10T10:46:26.614Z,25.70
2019-06-10T10:48:56.835Z,26.50
2019-06-10T10:51:26.774Z,26.50
2019-06-10T10:54:18.793Z,26.80
2019-06-10T10:56:28.525Z,27.30
2019-06-10T10:58:58.710Z,26.50
2019-06-10T11:01:28.791Z,26.40
2019-06-10T11:03:59.399Z,26.50
2019-06-10T11:06:32.142Z,26.30
2019-06-10T11:09:01.168Z,26.80
2019-06-10T11:11:33.374Z,27.30
2019-06-10T11:14:04.307Z,26.60
2019-06-10T11:16:34.142Z,26.30
2019-06-10T11:19:04.655Z,26.90
2019-06-10T11:21:35.494Z,26.50
2019-06-10T11:24:05.464Z,26.80
2019-06-10T11:26:36.728Z,26.60
2019-06-10T11:29:07.004Z,26.50
2019-06-10T11:31:37.231Z,27.30
2019-06-10T11:34:07.143Z,27.20
2019-06-10T11:36:37.219Z,25.70
2019-06-10T11:39:08.112Z,26.00
2019-06-10T11:41:38.327Z,26.60
2019-06-10T11:44:08.178Z,26.10
2019-06-10T11:46:38.020Z,26.50
2019-06-10T11:49:07.837Z,26.50
2019-06-10T11:51:37.760Z,25.90
2019-06-10T11:54:07.960Z,26.50
2019-06-10T11:56:37.884Z,26.70
2019-06-10T11:59:09.644Z,27.00
2019-06-10T12:01:39.523Z,27.00
2019-06-10T12:04:09.680Z,27.10
2019-06-10T12:06:39.875Z,26.80
2019-06-10T12:09:10.036Z,26.80
2019-06-10T12:11:43.417Z,26.50
2019-06-10T12:14:12.899Z,26.10
2019-06-10T12:19:14.536Z,25.90
2019-06-10T12:21:44.360Z,26.40
2019-06-10T12:24:14.248Z,26.60
2019-06-10T12:26:44.288Z,26.70
2019-06-10T12:29:14.542Z,26.90
2019-06-10T12:31:44.496Z,26.60
2019-06-10T12:34:17.125Z,26.90
2019-06-10T12:36:47.005Z,26.50
2019-06-10T12:39:17.446Z,27.00
2019-06-10T12:41:47.522Z,26.80
2019-06-10T12:44:17.422Z,26.10
2019-06-10T12:46:47.492Z,26.20
2019-06-10T12:49:18.542Z,26.40
2019-06-10T12:51:49.008Z,27.10
2019-06-10T12:54:19.126Z,27.20
2019-06-10T12:56:49.577Z,26.70
2019-06-10T12:59:20.122Z,26.60
2019-06-10T13:01:52.956Z,27.20
2019-06-10T13:04:22.306Z,27.40
2019-06-10T13:06:52.686Z,27.20
2019-06-10T13:09:24.353Z,26.50
2019-06-10T13:11:55.675Z,26.20
2019-06-10T13:14:25.665Z,26.50
2019-06-10T13:16:55.828Z,26.50
2019-06-10T13:19:25.767Z,26.50
2019-06-10T13:21:55.592Z,26.40
2019-06-10T13:24:25.715Z,26.90
2019-06-10T13:26:56.519Z,27.00
2019-06-10T13:29:26.417Z,27.10
2019-06-10T13:31:58.043Z,27.00
2019-06-10T13:34:28.018Z,26.80
2019-06-10T13:36:58.747Z,27.00
2019-06-10T13:39:28.786Z,27.20
2019-06-10T13:41:59.920Z,26.30
2019-06-10T13:44:32.149Z,26.10
2019-06-10T13:47:07.105Z,26.20
2019-06-10T13:49:33.767Z,26.50
2019-06-10T13:52:07.940Z,26.20
2019-06-10T13:54:35.587Z,26.50
2019-06-10T13:57:06.928Z,26.40
2019-06-10T13:59:37.350Z,26.40
2019-06-10T14:02:10.229Z,26.70
2019-06-10T14:04:39.306Z,26.30
2019-06-10T14:07:15.009Z,26.10
2019-06-10T14:09:42.455Z,25.90
2019-06-10T14:12:14.774Z,25.50
2019-06-10T14:14:43.886Z,25.90
2019-06-10T14:17:18.983Z,25.80
2019-06-10T14:19:45.313Z,25.70
2019-06-10T14:22:15.970Z,26.00
2019-06-10T14:24:46.412Z,25.80
2019-06-10T14:27:20.515Z,25.60
2019-06-10T14:29:48.213Z,25.30
2019-06-10T14:32:18.111Z,25.20
2019-06-10T14:34:48.306Z,25.20
2019-06-10T14:37:32.248Z,25.10
2019-06-10T14:39:52.871Z,25.20
2019-06-10T14:42:23.116Z,25.10
2019-06-10T14:44:53.401Z,25.00
2019-06-10T14:47:23.287Z,25.30
2019-06-10T14:49:53.246Z,25.60
2019-06-10T14:52:23.192Z,25.40
2019-06-10T14:54:53.437Z,25.50
2019-06-10T14:57:23.364Z,25.40
2019-06-10T14:59:53.454Z,25.30
2019-06-10T15:02:23.646Z,25.00
2019-06-10T15:04:53.523Z,25.20
2019-06-10T15:07:24.340Z,25.40
2019-06-10T15:09:55.206Z,25.50
2019-06-10T15:12:25.187Z,25.40
2019-06-10T15:14:55.593Z,25.70
2019-06-10T15:17:25.728Z,25.50
2019-06-10T15:19:55.851Z,25.50
2019-06-10T15:22:25.739Z,25.40
2019-06-10T15:24:55.791Z,25.40
2019-06-10T15:27:30.626Z,25.70
2019-06-10T15:29:57.521Z,25.70
2019-06-10T15:32:34.658Z,25.70
2019-06-10T15:34:59.361Z,25.90
2019-06-10T15:37:29.352Z,25.90
2019-06-10T15:39:59.236Z,25.90
2019-06-10T15:42:29.096Z,25.80
2019-06-10T15:44:59.302Z,25.50
2019-06-10T15:47:29.479Z,25.60
2019-06-10T15:49:59.445Z,25.40
2019-06-10T15:52:29.452Z,25.10
2019-06-10T15:54:59.591Z,24.70
2019-06-10T15:57:39.225Z,24.60
2019-06-10T16:00:04.186Z,24.20
2019-06-10T16:02:33.497Z,24.10
2019-06-10T16:05:04.760Z,23.80
2019-06-10T16:07:34.918Z,23.10
2019-06-10T16:10:07.761Z,22.40
2019-06-10T16:12:37.588Z,21.90
2019-06-10T16:15:08.329Z,21.50
2019-06-10T16:17:38.408Z,21.00
2019-06-10T16:20:08.877Z,20.50
2019-06-10T16:22:38.856Z,20.10
2019-06-10T16:25:08.831Z,19.60
2019-06-10T16:27:47.140Z,19.40
2019-06-10T16:30:12.943Z,19.10
2019-06-10T16:32:46.171Z,18.80
2019-06-10T16:35:15.174Z,18.50
2019-06-10T16:37:44.985Z,17.90
2019-06-10T16:40:15.251Z,17.80
2019-06-10T16:42:46.168Z,17.40
2019-06-10T16:45:19.823Z,17.30
2019-06-10T16:47:48.311Z,17.20
2019-06-10T16:50:19.458Z,17.10
2019-06-10T16:52:49.339Z,17.20
2019-06-10T16:55:19.653Z,17.10
2019-06-10T16:57:59.306Z,17.10
2019-06-10T17:00:24.221Z,16.90
2019-06-10T17:02:55.304Z,16.80
2019-06-10T17:05:27.511Z,16.80
2019-06-10T17:07:57.061Z,16.70
2019-06-10T17:10:28.192Z,16.50
2019-06-10T17:13:02.884Z,16.40
2019-06-10T17:15:32.204Z,16.40
2019-06-10T17:18:02.879Z,16.50
2019-06-10T17:20:34.146Z,16.40
2019-06-10T17:23:23.972Z,16.40
2019-06-10T17:25:57.841Z,16.30
2019-06-10T17:28:31.198Z,16.40
2019-06-10T17:30:59.983Z,16.40
2019-06-10T17:33:32.577Z,16.40
2019-06-10T17:36:03.365Z,16.50
2019-06-10T17:38:33.459Z,16.60
2019-06-10T17:41:03.343Z,16.60
2019-06-10T17:43:34.394Z,16.60
2019-06-10T17:46:04.916Z,16.60
2019-06-10T17:48:34.901Z,16.70
2019-06-10T17:51:05.062Z,16.70
2019-06-10T17:53:35.166Z,16.70
2019-06-10T17:56:05.093Z,16.80
2019-06-10T17:58:49.956Z,16.80
2019-06-10T18:01:06.490Z,16.80
2019-06-10T18:03:39.789Z,16.80
2019-06-10T18:06:08.338Z,16.80
2019-06-10T18:08:40.656Z,16.80
2019-06-10T18:11:12.506Z,16.70
2019-06-10T18:13:42.861Z,16.80
2019-06-10T18:16:13.381Z,16.80
2019-06-10T18:18:44.418Z,16.70
2019-06-10T18:21:14.535Z,16.60
2019-06-10T18:23:44.437Z,16.70
2019-06-10T18:26:14.286Z,16.80
2019-06-10T18:29:00.416Z,16.80
2019-06-10T18:31:18.557Z,16.80
2019-06-10T18:33:47.741Z,16.90
2019-06-10T18:36:17.788Z,16.90
2019-06-10T18:38:47.605Z,16.90
2019-06-10T18:41:17.677Z,16.80
2019-06-10T18:43:48.470Z,16.70
2019-06-10T18:46:18.496Z,16.70
2019-06-10T18:48:48.585Z,16.70
2019-06-10T18:51:18.402Z,16.70
2019-06-10T18:53:48.404Z,16.70
2019-06-10T18:56:18.608Z,16.70
2019-06-10T18:58:48.423Z,16.70
2019-06-10T19:01:18.320Z,16.70
2019-06-10T19:03:48.879Z,16.80
2019-06-10T19:06:19.019Z,16.80
2019-06-10T19:08:49.091Z,16.80
2019-06-10T19:11:19.256Z,16.70
2019-06-10T19:13:49.079Z,16.70
2019-06-10T19:16:18.896Z,16.70
2019-06-10T19:18:48.967Z,16.70
2019-06-10T19:21:18.879Z,16.80
2019-06-10T19:23:48.723Z,16.70
2019-06-10T19:26:18.961Z,16.70
2019-06-10T19:28:48.859Z,16.70
2019-06-10T19:31:19.031Z,16.70
2019-06-10T19:33:48.856Z,16.70
2019-06-10T19:36:18.918Z,16.60
2019-06-10T19:38:48.967Z,16.60
2019-06-10T19:41:18.786Z,16.60
2019-06-10T19:43:48.609Z,16.60
2019-06-10T19:46:19.610Z,16.50
2019-06-10T19:48:58.385Z,16.50
2019-06-10T19:51:21.466Z,16.50
2019-06-10T19:53:52.728Z,16.50
2019-06-10T19:56:26.297Z,16.50
2019-06-10T19:58:54.793Z,16.40
2019-06-10T20:01:24.760Z,16.40
2019-06-10T20:03:54.864Z,16.40
2019-06-10T20:06:24.767Z,16.40
2019-06-10T20:08:54.820Z,16.40
2019-06-10T20:11:24.638Z,16.30
2019-06-10T20:13:54.473Z,16.30
2019-06-10T20:16:24.476Z,16.30
2019-06-10T20:18:54.364Z,16.30
2019-06-10T20:21:24.199Z,16.20
2019-06-10T20:23:54.019Z,16.20
2019-06-10T20:26:23.830Z,16.20
2019-06-10T20:28:55.473Z,16.20
2019-06-10T20:31:25.385Z,16.20
2019-06-10T20:33:55.264Z,16.20
2019-06-10T20:36:27.188Z,16.20
2019-06-10T20:38:56.611Z,16.20
2019-06-10T20:41:26.420Z,16.10
2019-06-10T20:43:59.044Z,16.20
2019-06-10T20:46:27.829Z,16.10
2019-06-10T20:48:57.798Z,16.10
2019-06-10T20:51:27.704Z,16.00
2019-06-10T20:53:57.587Z,16.00
2019-06-10T20:56:27.718Z,16.00
2019-06-10T20:58:57.600Z,15.90
2019-06-10T21:01:27.536Z,15.90
2019-06-10T21:03:57.642Z,15.90
2019-06-10T21:06:29.832Z,15.90
2019-06-10T21:09:02.898Z,15.80
2019-06-10T21:11:34.489Z,15.80
2019-06-10T21:14:05.090Z,15.70
2019-06-10T21:16:35.166Z,15.70
2019-06-10T21:19:05.595Z,15.60
2019-06-10T21:21:36.028Z,15.60
2019-06-10T21:24:06.146Z,15.60
2019-06-10T21:26:36.310Z,15.60
2019-06-10T21:29:06.346Z,15.60
2019-06-10T21:31:36.512Z,15.60
2019-06-10T21:34:06.355Z,15.60
2019-06-10T21:36:36.425Z,15.60
2019-06-10T21:39:07.815Z,15.60
2019-06-10T21:41:37.654Z,15.60
2019-06-10T21:44:07.595Z,15.60
2019-06-10T21:46:37.667Z,15.60
2019-06-10T21:49:07.494Z,15.60
2019-06-10T21:51:37.509Z,15.50
2019-06-10T21:54:07.642Z,15.50
2019-06-10T21:56:37.737Z,15.50
2019-06-10T21:59:07.811Z,15.40
2019-06-10T22:01:38.125Z,15.30
2019-06-10T22:04:08.129Z,15.30
2019-06-10T22:06:37.938Z,15.20
2019-06-10T22:09:07.895Z,15.10
2019-06-10T22:11:37.797Z,15.10
2019-06-10T22:14:07.985Z,15.10
2019-06-10T22:16:38.059Z,15.10
2019-06-10T22:19:08.119Z,15.10
2019-06-10T22:21:38.004Z,15.00
2019-06-10T22:24:08.183Z,15.00
2019-06-10T22:26:38.016Z,15.00
2019-06-10T22:29:08.084Z,15.00
2019-06-10T22:31:38.224Z,15.00
2019-06-10T22:34:08.302Z,15.00
2019-06-10T22:36:38.392Z,15.00
2019-06-10T22:39:08.507Z,15.00
2019-06-10T22:41:38.649Z,15.10
2019-06-10T22:44:08.529Z,15.10
2019-06-10T22:46:39.325Z,15.10
2019-06-10T22:49:09.507Z,15.10
2019-06-10T22:51:39.623Z,15.10
2019-06-10T22:54:09.671Z,15.10
2019-06-10T22:56:39.569Z,15.20
2019-06-10T22:59:09.460Z,15.10
2019-06-10T23:01:39.416Z,15.20
2019-06-10T23:04:09.546Z,15.20
2019-06-10T23:06:39.398Z,15.10
2019-06-10T23:09:09.533Z,15.10
2019-06-10T23:11:39.354Z,15.10
2019-06-10T23:14:09.171Z,15.10
2019-06-10T23:16:39.000Z,15.10
2019-06-10T23:19:08.816Z,15.10
2019-06-10T23:21:38.882Z,15.10
2019-06-10T23:24:08.924Z,15.10
2019-06-10T23:26:38.746Z,15.10
2019-06-10T23:29:08.827Z,15.20
2019-06-10T23:31:49.575Z,15.20
2019-06-10T23:34:11.669Z,15.20
2019-06-10T23:36:43.174Z,15.20
2019-06-10T23:39:13.301Z,15.20
2019-06-10T23:41:43.512Z,15.20
2019-06-10T23:44:13.630Z,15.20
2019-06-10T23:46:43.457Z,15.20
2019-06-10T23:49:13.348Z,15.20
2019-06-10T23:51:43.481Z,15.20
2019-06-10T23:54:13.291Z,15.20
2019-06-10T23:56:43.422Z,15.20
2019-06-10T23:59:13.232Z,15.20
